Time;durP1;ratioP1;P1;durP2;ratioP2;P2;SDS_P1;SDS_P2;PMS_P1;PMS_P2;Temp;Humidity;BMP_temperature;BMP_pressure;BME280_temperature;BME280_humidity;BME280_pressure;Samples;Min_cycle;Max_cycle;Signal;HPM_P1;HPM_P2
2021/07/19 08:58:23;;;;;;;2.47;2.28;;;;;;;28.31;46.76;100964.84;6241245;22;20119;-78
2021/07/19 09:00:51;;;;;;;5.97;2.38;;;;;;;28.26;46.49;100963.16;6233716;23;20028;-76
2021/07/19 09:03:19;;;;;;;1.80;1.70;;;;;;;28.37;46.43;100966.16;6235961;23;20064;-75
2021/07/19 09:05:47;;;;;;;2.10;2.00;;;;;;;28.43;45.96;100963.84;6237072;23;20016;-79
2021/07/19 09:18:29;;;;;;;3.53;1.75;;;;;;;29.13;44.77;100954.13;6264451;23;20015;-75
2021/07/19 09:20:54;;;;;;;2.92;1.90;;;;;;;29.29;43.82;100967.22;6242375;23;20060;-77
2021/07/19 09:23:28;;;;;;;2.78;1.88;;;;;;;29.37;43.54;100974.59;6216395;23;20068;-76
2021/07/19 09:26:29;;;;;;;1.30;1.30;;;;;;;29.49;43.96;100965.06;6240574;23;19999;-77
2021/07/19 09:28:58;;;;;;;1.33;1.23;;;;;;;29.78;43.84;100975.47;6268090;22;20016;-78
2021/07/19 09:31:41;;;;;;;0.60;0.60;;;;;;;30.02;43.68;100964.91;6242224;22;20045;-77
2021/07/19 09:34:21;;;;;;;1.50;1.50;;;;;;;30.05;42.12;100950.03;6240431;23;20435;-74
2021/07/19 09:36:55;;;;;;;1.75;1.73;;;;;;;30.21;42.48;100966.72;6237072;23;19992;-75
2021/07/19 09:39:21;;;;;;;1.35;1.30;;;;;;;30.30;41.37;100963.59;6265012;23;20006;-76
2021/07/19 09:41:47;;;;;;;1.42;1.42;;;;;;;30.45;40.99;100973.81;6265050;23;20007;-75
2021/07/19 09:44:13;;;;;;;1.55;1.45;;;;;;;30.61;40.29;100964.28;6230271;23;20062;-76
2021/07/19 09:46:41;;;;;;;1.38;1.30;;;;;;;30.85;40.07;100967.66;6258823;23;20000;-76
2021/07/19 09:49:17;;;;;;;1.58;1.55;;;;;;;30.87;40.60;100963.25;6207048;23;20015;-76
2021/07/19 09:52:05;;;;;;;2.22;2.13;;;;;;;31.04;39.83;100961.75;6270661;22;20014;-75
2021/07/19 09:54:46;;;;;;;2.00;1.90;;;;;;;31.23;40.06;100971.16;6241557;22;19999;-78
2021/07/19 09:57:14;;;;;;;1.90;1.70;;;;;;;31.24;40.59;100947.34;6237497;22;20007;-76
2021/07/19 09:59:53;;;;;;;0.90;0.90;;;;;;;31.63;40.03;100961.69;6244947;22;19988;-77
2021/07/19 10:02:34;;;;;;;0.98;0.98;;;;;;;32.22;40.33;100965.47;6269660;22;20004;-78
2021/07/19 10:05:00;;;;;;;1.13;1.13;;;;;;;32.91;39.43;100960.63;6244209;22;20023;-78
2021/07/19 10:07:26;;;;;;;3.13;2.05;;;;;;;33.59;37.49;100966.09;6270603;22;19996;-77
2021/07/19 10:57:17;;;;;;;;;;;;;;;;;;;;;
2021/07/19 11:00:10;;;;;;;1.23;1.03;;;;;;;43.42;20.46;100962.69;6226692;23;20340;-76
2021/07/19 11:32:55;;;;;;;0.82;0.82;;;;;;;39.60;22.22;100937.13;6216079;23;20028;-73
2021/07/19 11:35:24;;;;;;;1.10;1.10;;;;;;;39.04;22.51;100930.56;6188333;23;20047;-74
2021/07/19 11:38:00;;;;;;;1.42;1.42;;;;;;;38.61;23.45;100931.72;6224260;23;20085;-76
2021/07/19 11:40:34;;;;;;;1.08;1.08;;;;;;;38.53;24.26;100930.31;6227330;23;20035;-74
2021/07/19 11:43:27;;;;;;;1.90;1.80;;;;;;;38.70;24.76;100926.19;6195923;23;20608;-74
2021/07/19 11:45:54;;;;;;;1.55;1.55;;;;;;;39.06;24.85;100922.34;6218256;23;20486;-73
2021/07/19 11:48:25;;;;;;;1.02;1.02;;;;;;;39.35;23.88;100921.50;6171635;23;20009;-74
2021/07/19 11:50:57;;;;;;;0.90;0.90;;;;;;;39.52;23.90;100924.28;6193016;23;20063;-74
2021/07/19 11:53:23;;;;;;;0.63;0.63;;;;;;;40.65;24.56;100923.06;6171046;23;20013;-71
2021/07/19 11:56:19;;;;;;;2.75;1.00;;;;;;;42.16;22.22;100923.03;6192922;23;20189;-73
2021/07/19 11:58:55;;;;;;;1.85;1.30;;;;;;;42.77;20.93;100925.34;6217123;23;20397;-74
2021/07/19 12:01:30;;;;;;;1.42;1.35;;;;;;;42.88;20.14;100927.75;6222173;23;20439;-72
2021/07/19 12:03:57;;;;;;;2.60;1.20;;;;;;;42.67;20.15;100923.75;6223851;23;20007;-74
2021/07/19 12:06:24;;;;;;;1.23;1.05;;;;;;;42.47;20.96;100927.09;6219716;23;20339;-74
2021/07/19 12:08:56;;;;;;;1.08;1.08;;;;;;;43.19;20.75;100927.56;6255520;23;20004;-76
2021/07/19 12:11:22;;;;;;;0.93;0.93;;;;;;;44.23;19.77;100932.47;6254943;23;20005;-76
2021/07/19 12:13:48;;;;;;;0.88;0.88;;;;;;;45.31;19.38;100921.81;6255698;23;20068;-78
2021/07/19 12:16:15;;;;;;;1.58;1.05;;;;;;;46.52;18.03;100923.88;6254796;23;20012;-75
2021/07/19 12:18:48;;;;;;;1.00;1.00;;;;;;;47.63;17.10;100921.06;6246832;23;20130;-77
2021/07/19 12:21:23;;;;;;;0.95;0.95;;;;;;;47.49;16.06;100916.22;6203689;23;20415;-78
2021/07/19 12:23:51;;;;;;;3.42;0.93;;;;;;;47.80;15.76;100917.50;6255651;23;20007;-79
2021/07/19 12:26:32;;;;;;;2.83;0.90;;;;;;;48.36;15.33;100917.03;6253751;23;20351;-77
2021/07/19 12:29:00;;;;;;;1.05;0.77;;;;;;;49.13;15.15;100908.28;6252092;23;20000;-75
2021/07/19 12:31:30;;;;;;;0.52;0.50;;;;;;;49.84;14.87;100907.19;6241369;23;20004;-74
2021/07/19 12:34:07;;;;;;;1.50;1.40;;;;;;;49.48;12.86;100909.88;6248119;23;20012;-73
2021/07/19 12:36:34;;;;;;;1.08;1.08;;;;;;;48.25;14.38;100911.97;6249716;23;20028;-74
2021/07/19 12:39:17;;;;;;;3.03;0.82;;;;;;;48.02;14.62;100902.38;6250267;23;20000;-75
2021/07/19 12:41:46;;;;;;;1.13;1.10;;;;;;;47.66;14.75;100891.06;6225699;23;20008;-74
2021/07/19 12:44:14;;;;;;;1.65;1.10;;;;;;;47.62;14.80;100895.50;6221595;23;20023;-74
2021/07/19 12:46:45;;;;;;;1.00;1.00;;;;;;;47.99;15.20;100891.81;6251571;23;20062;-73
2021/07/19 12:49:11;;;;;;;0.98;0.98;;;;;;;48.68;14.76;100888.69;6225829;23;20011;-74
2021/07/19 12:51:40;;;;;;;0.70;0.70;;;;;;;49.40;13.93;100897.22;6253905;23;20000;-74
2021/07/19 12:54:16;;;;;;;0.98;0.88;;;;;;;50.54;13.94;100897.69;6225168;23;20036;-73
2021/07/19 12:56:41;;;;;;;0.77;0.77;;;;;;;51.95;13.31;100901.59;6219431;23;20008;-73
2021/07/19 12:59:12;;;;;;;0.30;0.30;;;;;;;53.40;13.15;100902.16;6252746;23;20004;-75
2021/07/19 13:01:40;;;;;;;0.30;0.30;;;;;;;54.64;12.17;100889.28;6253618;23;20108;-73
2021/07/19 13:04:11;;;;;;;0.55;0.55;;;;;;;55.68;10.63;100895.69;6226602;23;20004;-72
2021/07/19 13:06:41;;;;;;;0.75;0.75;;;;;;;55.92;9.92;100894.44;6227548;23;20030;-74
2021/07/19 13:09:24;;;;;;;0.50;0.50;;;;;;;55.60;9.30;100883.91;6251720;23;20012;-74
2021/07/19 13:12:02;;;;;;;1.00;1.00;;;;;;;53.68;9.08;100880.38;6222907;23;20046;-75
2021/07/19 13:14:41;;;;;;;0.98;0.98;;;;;;;52.84;9.93;100883.44;6250231;23;20423;-74
2021/07/19 13:17:08;;;;;;;1.40;1.30;;;;;;;52.49;10.48;100883.13;6253061;23;20000;-73
2021/07/19 13:19:39;;;;;;;1.38;0.90;;;;;;;52.41;10.44;100869.75;6228086;23;20004;-74
2021/07/19 13:22:14;;;;;;;2.28;0.70;;;;;;;52.52;10.74;100879.09;6224734;23;20008;-75
2021/07/19 13:24:44;;;;;;;0.60;0.60;;;;;;;53.03;11.05;100878.34;6254400;23;20000;-75
2021/07/19 13:27:13;;;;;;;0.60;0.60;;;;;;;53.87;10.34;100863.50;6229864;23;20016;-75
2021/07/19 13:29:48;;;;;;;0.38;0.38;;;;;;;54.96;10.56;100870.69;6259967;23;19996;-76
2021/07/19 13:32:18;;;;;;;0.17;0.17;;;;;;;56.22;10.09;100873.28;6254281;23;20050;-76
2021/07/19 13:35:04;;;;;;;0.30;0.30;;;;;;;57.31;9.19;100886.84;6227660;23;20004;-80
2021/07/19 13:37:36;;;;;;;0.50;0.50;;;;;;;57.62;8.58;100868.41;6236231;23;20057;-79
2021/07/19 13:40:22;;;;;;;1.42;0.80;;;;;;;55.58;7.76;100852.25;6262539;22;20056;-79
2021/07/19 13:42:53;;;;;;;0.68;0.50;;;;;;;52.83;9.09;100849.75;6257129;23;20373;-74
2021/07/19 13:45:25;;;;;;;0.90;0.90;;;;;;;50.48;10.51;100848.28;6253058;23;20008;-75
2021/07/19 13:47:53;;;;;;;0.70;0.70;;;;;;;48.22;11.79;100840.53;6232352;23;20008;-76
2021/07/19 13:50:20;;;;;;;6.00;1.00;;;;;;;46.49;12.91;100828.69;6230872;23;20011;-74
2021/07/19 13:52:48;;;;;;;0.52;0.50;;;;;;;45.62;13.65;100836.78;6252672;23;20027;-75
2021/07/19 13:55:16;;;;;;;5.65;0.60;;;;;;;45.65;14.09;100829.97;6231202;23;20000;-76
2021/07/19 13:57:42;;;;;;;0.50;0.50;;;;;;;45.93;14.41;100832.50;6260602;23;20011;-73
2021/07/19 14:00:09;;;;;;;1.02;0.70;;;;;;;46.31;14.34;100832.72;6262365;23;20039;-77
2021/07/19 14:02:43;;;;;;;0.45;0.40;;;;;;;46.10;14.19;100824.00;6264644;23;19999;-78
2021/07/19 14:05:12;;;;;;;0.85;0.85;;;;;;;45.62;14.51;100818.63;6237520;23;20062;-80
2021/07/19 14:07:38;;;;;;;0.90;0.90;;;;;;;45.71;14.44;100824.28;6260746;22;20004;-77
2021/07/19 14:10:07;;;;;;;2.60;0.55;;;;;;;45.75;14.57;100809.63;6232788;23;20000;-80
2021/07/19 14:12:38;;;;;;;0.73;0.73;;;;;;;45.30;15.00;100806.84;6237833;23;20040;-77
2021/07/19 14:15:08;;;;;;;0.65;0.65;;;;;;;44.51;15.25;100809.16;6235866;23;20074;-79
2021/07/19 14:17:35;;;;;;;3.80;1.40;;;;;;;44.27;16.62;100807.09;6236687;23;20072;-79
2021/07/19 14:20:03;;;;;;;0.80;0.80;;;;;;;45.42;16.72;100794.19;6234384;23;20142;-78
2021/07/19 14:22:34;;;;;;;0.80;0.80;;;;;;;47.49;15.47;100803.28;6209663;23;20012;-78
2021/07/19 14:25:05;;;;;;;0.77;0.77;;;;;;;48.04;14.06;100787.50;6209495;23;20008;-78
2021/07/19 14:27:55;;;;;;;0.80;0.80;;;;;;;47.43;13.61;100814.81;6233842;23;20011;-79
2021/07/19 14:30:42;;;;;;;1.58;0.98;;;;;;;45.88;14.27;100789.09;6243873;23;20319;-80
2021/07/19 14:33:12;;;;;;;0.93;0.93;;;;;;;44.46;15.24;100789.66;6207766;23;20004;-80
2021/07/19 14:36:30;;;;;;;0.75;0.75;;;;;;;43.55;15.77;100799.25;6232158;23;20008;-79
2021/07/19 14:40:10;;;;;;;1.40;0.90;;;;;;;42.30;16.77;100775.13;6083087;23;20021;-77
2021/07/19 14:42:48;;;;;;;;;;;;;;;;;;;;;
2021/07/19 14:45:24;;;;;;;2.45;0.60;;;;;;;42.99;18.10;100755.53;6263306;23;20004;-75
2021/07/19 14:48:07;;;;;;;0.40;0.40;;;;;;;45.60;17.31;100770.06;6235500;23;20011;-77
2021/07/19 14:50:33;;;;;;;0.70;0.70;;;;;;;47.65;15.43;100779.44;6234653;23;19996;-76
2021/07/19 14:52:59;;;;;;;0.43;0.43;;;;;;;49.48;14.58;100769.66;6259408;23;20003;-75
2021/07/19 14:55:25;;;;;;;1.00;1.00;;;;;;;50.97;12.27;100783.69;6235251;23;20082;-76
2021/07/19 14:57:50;;;;;;;0.93;0.82;;;;;;;51.75;12.03;100792.91;6202803;23;20020;-75
2021/07/19 15:00:21;;;;;;;0.75;0.75;;;;;;;52.84;12.02;100795.88;6226038;23;20008;-74
2021/07/19 15:02:50;;;;;;;0.88;0.45;;;;;;;54.03;11.61;100773.88;6231503;23;20008;-74
2021/07/19 15:05:18;;;;;;;0.20;0.20;;;;;;;55.05;10.80;100782.34;6231644;23;20119;-74
2021/07/19 15:07:46;;;;;;;0.68;0.68;;;;;;;55.65;10.15;100785.47;6202184;23;20020;-76
2021/07/19 15:10:13;;;;;;;0.40;0.40;;;;;;;54.94;9.71;100787.09;6205621;23;20004;-74
2021/07/19 15:12:41;;;;;;;2.38;0.68;;;;;;;54.52;9.54;100774.63;6236857;23;20019;-76
2021/07/19 15:15:08;;;;;;;0.75;0.57;;;;;;;54.85;9.34;100780.97;6236784;23;20099;-80
2021/07/19 15:17:36;;;;;;;0.50;0.50;;;;;;;55.36;9.37;100770.84;6211950;23;20056;-76
2021/07/19 15:20:04;;;;;;;0.57;0.57;;;;;;;55.85;8.85;100769.91;6229006;23;20000;-75
2021/07/19 15:22:37;;;;;;;0.57;0.57;;;;;;;55.26;8.37;100767.63;6231499;23;20027;-75
2021/07/19 15:25:15;;;;;;;0.90;0.90;;;;;;;52.96;8.69;100746.81;6205322;23;20012;-76
2021/07/19 15:27:50;;;;;;;0.82;0.82;;;;;;;50.67;10.38;100761.16;6260019;23;20004;-76
2021/07/19 15:30:17;;;;;;;2.20;1.10;;;;;;;48.69;11.95;100758.91;6228212;23;20019;-75
2021/07/19 15:32:47;;;;;;;1.13;1.13;;;;;;;48.53;12.87;100751.81;6232900;23;20076;-74
2021/07/19 15:35:15;;;;;;;0.70;0.70;;;;;;;48.27;12.34;100744.13;6260229;23;19996;-77
2021/07/19 15:37:41;;;;;;;1.10;1.10;;;;;;;46.95;12.63;100738.16;6258568;23;20034;-76
2021/07/19 15:40:11;;;;;;;0.85;0.85;;;;;;;45.56;13.48;100734.03;6257684;23;19996;-74
2021/07/19 15:42:36;;;;;;;0.77;0.77;;;;;;;44.58;14.50;100733.00;6229804;23;20014;-72
2021/07/19 15:45:06;;;;;;;1.27;0.80;;;;;;;45.38;14.95;100735.09;6204491;23;20027;-72
2021/07/19 15:47:34;;;;;;;1.42;1.05;;;;;;;46.84;14.68;100735.19;6229210;23;20051;-72
2021/07/19 15:50:05;;;;;;;1.13;1.02;;;;;;;47.02;13.64;100731.13;6229174;23;20008;-77
2021/07/19 15:52:31;;;;;;;1.08;0.80;;;;;;;46.44;13.86;100722.44;6229807;23;20000;-75
2021/07/19 15:54:59;;;;;;;0.85;0.85;;;;;;;47.05;14.23;100726.41;6228548;23;20026;-73
2021/07/19 15:57:25;;;;;;;0.73;0.73;;;;;;;47.25;13.56;100717.59;6233691;23;20098;-73
2021/07/19 15:59:50;;;;;;;0.70;0.70;;;;;;;46.14;13.78;100716.88;6204061;23;20066;-74
2021/07/19 16:02:16;;;;;;;0.85;0.85;;;;;;;45.01;14.58;100727.72;6201374;23;20068;-73
2021/07/19 16:04:42;;;;;;;0.50;0.40;;;;;;;43.86;15.17;100708.84;6225483;23;20004;-72
2021/07/19 16:07:08;;;;;;;1.45;1.35;;;;;;;42.83;16.14;100722.19;6224627;23;20115;-74
2021/07/19 16:09:33;;;;;;;1.35;1.25;;;;;;;41.68;17.12;100719.53;6254514;23;20000;-72
2021/07/19 16:12:02;;;;;;;0.75;0.75;;;;;;;40.85;17.43;100709.84;6201670;23;20019;-71
2021/07/19 16:14:29;;;;;;;0.88;0.85;;;;;;;40.33;18.85;100718.75;6227083;23;20486;-73
2021/07/19 16:16:55;;;;;;;2.80;1.60;;;;;;;39.73;20.03;100716.78;6223317;23;20000;-73
2021/07/19 16:22:21;;;;;;;1.25;1.25;;;;;;;38.73;21.12;100699.56;6214310;23;20010;-75
2021/07/19 16:25:05;;;;;;;1.75;1.65;;;;;;;39.85;21.43;100700.84;6210221;23;20028;-76
2021/07/19 16:27:40;;;;;;;1.05;0.95;;;;;;;41.64;20.27;100715.22;6235260;23;20023;-77
2021/07/19 16:30:20;;;;;;;0.60;0.60;;;;;;;43.30;18.82;100710.47;6234924;23;20000;-76
2021/07/19 16:32:53;;;;;;;0.80;0.80;;;;;;;44.65;17.86;100714.53;6232393;23;20095;-80
2021/07/19 16:35:51;;;;;;;2.23;1.43;;;;;;;45.86;16.25;100711.59;6209861;23;20035;-77
2021/07/19 16:38:18;;;;;;;0.90;0.90;;;;;;;46.60;16.11;100724.75;6235830;23;20225;-76
2021/07/19 16:40:44;;;;;;;0.50;0.50;;;;;;;47.34;15.21;100725.28;6235023;23;20015;-76
2021/07/19 16:43:22;;;;;;;0.70;0.70;;;;;;;47.77;14.31;100707.06;6237188;23;20012;-77
2021/07/19 16:48:45;;;;;;;0.85;0.85;;;;;;;48.23;13.38;100705.88;6264065;23;20011;-77
2021/07/19 16:51:13;;;;;;;0.98;0.98;;;;;;;48.20;13.30;100715.63;6265291;23;20012;-74
2021/07/19 16:53:42;;;;;;;1.25;0.90;;;;;;;48.21;13.53;100708.53;6238682;23;20023;-76
2021/07/19 16:56:14;;;;;;;0.80;0.80;;;;;;;48.29;13.22;100706.69;6239282;23;20038;-78
2021/07/19 16:58:54;;;;;;;0.50;0.50;;;;;;;48.28;13.65;100696.44;6243809;23;20091;-75
2021/07/19 17:01:23;;;;;;;0.68;0.68;;;;;;;48.72;13.56;100689.06;6209897;23;20015;-77
2021/07/19 17:04:01;;;;;;;0.85;0.40;;;;;;;49.27;13.20;100709.03;6258087;23;20012;-77
2021/07/19 17:06:37;;;;;;;;;;;;;;;;;;;;;
2021/07/19 17:09:14;;;;;;;0.57;0.57;;;;;;;49.55;12.68;100693.63;6236811;23;20031;-74
2021/07/19 17:12:15;;;;;;;;;;;;;;;;;;;;;
2021/07/19 17:15:12;;;;;;;0.70;0.70;;;;;;;49.25;11.78;100685.56;6235956;23;20034;-78
2021/07/19 17:18:43;;;;;;;1.77;0.55;;;;;;;48.99;12.24;100695.34;6235385;23;20015;-78
2021/07/19 17:21:48;;;;;;;0.25;0.25;;;;;;;48.82;12.08;100691.66;6220726;23;20004;-76
2021/07/19 17:24:22;;;;;;;0.57;0.57;;;;;;;48.44;12.14;100674.56;6237707;23;20012;-79
2021/07/19 17:26:51;;;;;;;0.77;0.77;;;;;;;48.19;12.17;100687.97;6238784;23;20004;-76
2021/07/19 17:29:17;;;;;;;0.55;0.55;;;;;;;47.89;12.46;100671.81;6234210;23;20303;-76
2021/07/19 17:31:52;;;;;;;1.63;0.55;;;;;;;47.73;12.82;100675.47;6243057;23;20018;-76
2021/07/19 17:34:21;;;;;;;0.60;0.60;;;;;;;47.50;12.78;100680.38;6241197;23;20008;-75
2021/07/19 17:36:46;;;;;;;0.43;0.43;;;;;;;47.36;13.04;100685.84;6242357;23;19995;-76
2021/07/19 17:39:15;;;;;;;0.20;0.20;;;;;;;47.17;13.19;100675.97;6245429;23;19992;-75
2021/07/19 17:41:45;;;;;;;0.40;0.40;;;;;;;47.13;13.16;100672.53;6214022;23;19999;-76
2021/07/19 17:44:11;;;;;;;0.40;0.40;;;;;;;46.73;13.24;100683.81;6261629;23;19980;-76
2021/07/19 17:46:44;;;;;;;0.40;0.40;;;;;;;45.78;13.35;100681.53;6208646;23;20015;-74
2021/07/19 17:49:10;;;;;;;0.55;0.55;;;;;;;44.75;13.89;100673.56;6212341;23;20015;-76
2021/07/19 17:51:35;;;;;;;0.52;0.43;;;;;;;44.26;14.55;100670.09;6211016;23;20016;-74
2021/07/19 17:54:03;;;;;;;2.50;0.60;;;;;;;44.13;14.79;100669.56;6257052;23;20000;-75
2021/07/19 17:56:31;;;;;;;0.50;0.50;;;;;;;44.07;15.27;100674.41;6210500;23;20011;-74
2021/07/19 17:59:00;;;;;;;0.70;0.70;;;;;;;43.92;15.22;100678.06;6209690;23;20016;-75
2021/07/19 18:01:25;;;;;;;2.75;0.70;;;;;;;43.79;15.60;100668.88;6233222;23;20012;-75
2021/07/19 18:03:53;;;;;;;0.70;0.70;;;;;;;43.74;15.60;100678.22;6232580;23;20024;-76
2021/07/19 18:06:23;;;;;;;0.60;0.60;;;;;;;43.58;15.64;100670.84;6205820;23;20012;-74
2021/07/19 18:08:50;;;;;;;0.47;0.47;;;;;;;43.53;15.84;100672.31;6231809;23;20008;-75
2021/07/19 18:11:15;;;;;;;0.52;0.52;;;;;;;43.53;16.01;100685.91;6257412;23;20000;-75
2021/07/19 18:13:42;;;;;;;0.40;0.40;;;;;;;43.35;16.15;100687.59;6183188;23;20027;-76
2021/07/19 18:16:15;;;;;;;0.75;0.75;;;;;;;42.80;16.02;100682.91;6261694;23;20008;-73
2021/07/19 18:30:50;;;;;;;5.45;1.17;;;;;;;38.68;19.63;100680.13;6176776;23;20007;-76
2021/07/19 18:33:30;;;;;;;1.25;1.25;;;;;;;37.88;19.74;100669.34;6145800;23;19994;-74
2021/07/19 18:36:00;;;;;;;1.90;1.40;;;;;;;37.36;20.69;100680.47;6135298;23;20432;-75
2021/07/19 18:38:25;;;;;;;0.98;0.98;;;;;;;36.87;21.53;100677.53;6232933;23;20020;-76
2021/07/19 18:40:52;;;;;;;2.45;1.55;;;;;;;36.37;21.95;100678.66;6232944;23;20064;-75
2021/07/19 18:43:25;;;;;;;3.92;1.45;;;;;;;35.94;22.78;100683.94;6237320;23;20000;-77
2021/07/19 18:46:14;;;;;;;1.30;1.30;;;;;;;35.46;22.99;100668.91;6234203;23;20035;-74
2021/07/19 18:49:08;;;;;;;;;;;;;;;;;;;;;
2021/07/19 18:51:48;;;;;;;1.50;1.40;;;;;;;34.78;24.33;100658.59;6261949;23;20327;-76
2021/07/19 18:54:17;;;;;;;1.73;1.17;;;;;;;34.70;24.63;100685.47;6208079;23;20011;-74
2021/07/19 18:56:46;;;;;;;1.73;1.63;;;;;;;34.36;25.58;100672.13;6229806;23;20015;-72
2021/07/19 18:59:14;;;;;;;3.10;2.05;;;;;;;34.10;27.77;100689.41;6232615;23;20026;-79
2021/07/19 19:01:39;;;;;;;2.08;1.98;;;;;;;33.70;28.49;100682.50;6228906;23;20008;-76
2021/07/19 19:04:28;;;;;;;5.15;2.05;;;;;;;33.29;28.85;100664.22;6229630;23;20469;-76
2021/07/19 19:07:16;;;;;;;2.17;2.05;;;;;;;33.04;29.51;100682.19;6242227;23;20030;-76
2021/07/19 19:09:42;;;;;;;1.90;1.80;;;;;;;32.62;30.80;100655.75;6230539;23;20007;-74
2021/07/19 19:12:15;;;;;;;2.85;2.65;;;;;;;32.42;31.86;100675.25;6203672;23;20019;-76
2021/07/19 19:14:45;;;;;;;2.30;2.20;;;;;;;32.14;33.70;100664.81;6232344;23;20000;-74
2021/07/19 19:17:34;;;;;;;2.10;2.00;;;;;;;31.89;33.33;100664.88;6258889;23;20000;-74
2021/07/19 19:20:09;;;;;;;3.45;2.17;;;;;;;31.69;35.39;100682.28;6209042;23;20012;-76
2021/07/19 19:22:38;;;;;;;2.15;2.00;;;;;;;31.35;36.51;100670.53;6189936;23;20008;-75
2021/07/19 19:25:09;;;;;;;2.80;2.60;;;;;;;31.03;38.09;100672.16;6237171;23;20004;-76
2021/07/19 19:27:40;;;;;;;2.67;2.47;;;;;;;30.64;38.79;100672.81;6229834;23;20343;-75
2021/07/19 19:30:11;;;;;;;2.50;2.40;;;;;;;30.32;39.39;100667.03;6230994;23;20411;-77
2021/07/19 19:32:36;;;;;;;2.08;1.98;;;;;;;30.05;39.65;100661.63;6260701;23;20358;-74
2021/07/19 19:37:51;;;;;;;2.20;2.00;;;;;;;29.61;41.10;100663.34;6245652;23;20008;-76
2021/07/19 19:40:30;;;;;;;;;;;;;;;;;;;;;
2021/07/19 19:43:06;;;;;;;3.13;2.60;;;;;;;29.13;42.53;100666.97;6260645;23;20031;-76
2021/07/19 19:45:33;;;;;;;2.40;2.30;;;;;;;28.96;43.24;100657.13;6261173;23;20022;-76
2021/07/19 19:47:58;;;;;;;5.32;2.22;;;;;;;28.84;43.38;100677.09;6234630;23;20008;-77
2021/07/19 19:50:34;;;;;;;2.45;2.25;;;;;;;28.66;43.95;100682.53;6234008;23;20326;-76
2021/07/19 19:53:11;;;;;;;4.22;2.58;;;;;;;28.45;43.69;100672.59;6208369;23;20012;-76
2021/07/19 19:55:39;;;;;;;2.50;2.40;;;;;;;28.35;44.16;100679.69;6234642;23;20019;-76
2021/07/19 19:58:30;;;;;;;2.55;2.45;;;;;;;28.29;43.81;100683.25;6207823;23;20066;-77
2021/07/19 20:01:11;;;;;;;2.38;2.28;;;;;;;28.20;44.68;100691.97;6259584;23;20415;-77
2021/07/19 20:04:05;;;;;;;2.97;2.67;;;;;;;27.97;44.68;100681.59;6238368;23;20004;-76
2021/07/19 20:06:33;;;;;;;2.95;2.85;;;;;;;27.76;44.81;100670.00;6222935;23;20071;-75
2021/07/19 20:09:02;;;;;;;2.47;2.38;;;;;;;27.81;45.91;100700.59;6214265;23;20012;-75
2021/07/19 20:11:36;;;;;;;2.58;2.38;;;;;;;27.62;45.88;100682.63;6234946;23;20000;-75
2021/07/19 20:14:09;;;;;;;2.85;2.75;;;;;;;27.54;46.00;100689.34;6234691;23;20008;-77
2021/07/19 20:16:38;;;;;;;3.05;2.95;;;;;;;27.52;46.10;100702.94;6207333;23;20015;-77
2021/07/19 20:19:04;;;;;;;3.28;2.60;;;;;;;27.41;47.13;100715.97;6231864;23;20004;-77
2021/07/19 20:21:29;;;;;;;2.70;2.60;;;;;;;27.21;46.48;100687.94;6229548;23;20382;-75
2021/07/19 20:26:55;;;;;;;2.00;1.90;;;;;;;27.11;46.42;100696.97;6240006;23;20052;-79
2021/07/19 20:29:23;;;;;;;1.90;1.80;;;;;;;27.07;46.25;100701.69;6262376;23;20433;-76
2021/07/19 20:31:50;;;;;;;3.72;1.67;;;;;;;26.99;46.13;100700.75;6261282;23;20015;-79
2021/07/19 20:38:14;;;;;;;3.85;2.10;;;;;;;26.82;47.22;100697.25;6255970;23;20354;-78
2021/07/19 20:40:58;;;;;;;;;;;;;;;;;;;;;
2021/07/19 20:44:00;;;;;;;;;;;;;;;;;;;;;
2021/07/19 20:47:01;;;;;;;2.58;2.38;;;;;;;26.71;47.63;100717.81;6142708;23;20010;-77
2021/07/19 20:49:27;;;;;;;3.10;2.28;;;;;;;26.62;47.92;100718.00;6091845;23;20010;-78
2021/07/19 20:51:54;;;;;;;2.30;2.22;;;;;;;26.56;47.78;100725.09;6221853;23;20004;-74
2021/07/19 20:54:42;;;;;;;6.50;2.33;;;;;;;26.47;48.71;100719.72;6263238;23;20000;-76
2021/07/19 20:57:58;;;;;;;;;;;;;;;;;;;;;
2021/07/19 21:00:49;;;;;;;;;;;;;;;;;;;;;
2021/07/19 21:07:04;;;;;;;2.92;2.80;;;;;;;26.11;49.01;100722.53;6256029;23;20019;-77
2021/07/19 21:09:32;;;;;;;2.75;2.55;;;;;;;25.99;50.07;100721.81;6231758;23;20003;-74
2021/07/19 21:12:18;;;;;;;2.63;2.53;;;;;;;25.81;50.69;100699.00;6211908;23;20076;-74
2021/07/19 21:14:48;;;;;;;;;;;;;;;25.94;50.85;100726.50;6267729;23;20011;-76
2021/07/19 21:17:33;;;;;;;;;;;;;;;;;;;;;
2021/07/19 21:20:12;;;;;;;2.20;2.10;;;;;;;25.68;50.06;100709.47;6266650;23;20027;-76
2021/07/19 21:22:59;;;;;;;2.85;2.75;;;;;;;25.59;50.32;100710.47;6240170;23;20027;-77
2021/07/19 21:25:47;;;;;;;2.80;2.70;;;;;;;25.46;50.25;100697.72;6261179;23;20014;-76
2021/07/19 21:28:25;;;;;;;;;;;;;;;;;;;;;
2021/07/19 21:34:04;;;;;;;2.22;2.13;;;;;;;25.46;51.46;100727.72;6243724;23;20003;-77
2021/07/19 21:36:35;;;;;;;3.03;2.92;;;;;;;25.38;51.57;100733.13;6238235;23;20038;-77
2021/07/19 21:39:13;;;;;;;4.55;2.70;;;;;;;25.32;52.24;100728.16;6233548;23;20008;-77
2021/07/19 21:42:18;;;;;;;2.63;2.53;;;;;;;25.25;52.47;100729.56;6222733;23;20016;-77
2021/07/19 21:48:57;;;;;;;2.58;2.45;;;;;;;25.06;52.03;100733.06;6116926;23;20025;-78
2021/07/19 21:52:14;;;;;;;;;;;;;;;;;;;;;
2021/07/19 21:55:00;;;;;;;;;;;;;;;;;;;;;
2021/07/19 21:58:10;;;;;;;;;;;;;;;24.94;53.07;100729.50;6151934;23;20400;-75
2021/07/19 22:00:56;;;;;;;5.18;2.50;;;;;;;24.76;53.13;100723.41;6197593;23;19926;-77
2021/07/19 22:07:36;;;;;;;2.47;2.38;;;;;;;24.46;53.10;100704.13;6199151;23;20570;-74
2021/07/19 22:10:48;;;;;;;2.05;1.88;;;;;;;24.54;52.27;100717.94;6147586;23;20012;-76
2021/07/19 22:13:18;;;;;;;1.75;1.75;;;;;;;24.55;52.49;100730.78;6196452;23;20009;-73
2021/07/19 22:15:44;;;;;;;1.83;1.73;;;;;;;24.48;52.59;100736.16;6146625;23;20064;-74
2021/07/19 22:18:14;;;;;;;2.30;2.10;;;;;;;24.46;52.13;100727.31;6227930;23;20327;-75
2021/07/19 22:20:41;;;;;;;1.95;1.85;;;;;;;24.38;51.84;100719.88;6228374;23;19993;-75
2021/07/19 22:23:09;;;;;;;1.30;1.30;;;;;;;24.31;52.07;100712.09;6238587;23;20004;-75
2021/07/19 22:25:34;;;;;;;1.55;1.50;;;;;;;24.39;52.03;100727.09;6265932;23;20022;-73
2021/07/19 22:28:02;;;;;;;1.40;1.30;;;;;;;24.41;51.47;100730.34;6210978;23;20031;-75
2021/07/19 22:30:30;;;;;;;1.80;1.70;;;;;;;24.38;51.73;100728.25;6226508;23;20059;-73
2021/07/19 22:32:57;;;;;;;1.67;1.63;;;;;;;24.32;51.07;100721.28;6254296;23;20134;-73
2021/07/19 22:35:26;;;;;;;1.27;1.23;;;;;;;24.32;50.79;100726.88;6249127;23;20330;-73
2021/07/19 22:37:52;;;;;;;1.70;1.60;;;;;;;24.33;50.79;100728.50;6224238;23;20008;-72
2021/07/19 22:40:18;;;;;;;1.13;1.10;;;;;;;24.31;50.76;100736.41;6251509;23;20026;-73
2021/07/19 22:42:43;;;;;;;1.80;1.70;;;;;;;24.26;50.94;100728.28;6229483;23;20331;-74
2021/07/19 22:45:16;;;;;;;1.83;1.73;;;;;;;24.25;50.51;100726.66;6180828;23;20004;-75
2021/07/19 22:47:43;;;;;;;2.13;1.50;;;;;;;24.22;50.50;100733.75;6232006;23;20075;-75
2021/07/19 22:50:10;;;;;;;1.50;1.48;;;;;;;24.18;50.72;100733.66;6259544;23;20035;-75
2021/07/19 22:52:37;;;;;;;1.40;1.30;;;;;;;24.14;50.52;100729.13;6234653;23;20004;-78
2021/07/19 22:55:05;;;;;;;1.60;1.50;;;;;;;24.03;50.48;100717.59;6209838;23;20138;-77
2021/07/19 22:57:30;;;;;;;1.52;1.45;;;;;;;24.01;50.95;100725.53;6231377;23;20015;-76
2021/07/19 22:59:56;;;;;;;2.08;1.98;;;;;;;23.98;50.57;100729.81;6260781;22;20040;-75
2021/07/19 23:02:26;;;;;;;0.60;0.60;;;;;;;23.95;50.27;100724.16;6208411;23;20024;-78
2021/07/19 23:04:53;;;;;;;0.60;0.60;;;;;;;23.90;50.08;100722.38;6242340;23;20009;-76
2021/07/19 23:07:28;;;;;;;0.40;0.40;;;;;;;23.93;50.69;100732.84;6221697;23;20012;-78
2021/07/19 23:09:56;;;;;;;0.55;0.55;;;;;;;23.90;50.68;100732.75;6208139;23;20066;-77
2021/07/19 23:12:22;;;;;;;0.45;0.40;;;;;;;23.82;51.11;100724.09;6211149;23;20405;-76
2021/07/19 23:14:47;;;;;;;0.30;0.30;;;;;;;23.83;51.50;100728.53;6234381;23;20032;-76
2021/07/19 23:17:13;;;;;;;1.08;0.43;;;;;;;23.79;51.65;100727.59;6259682;23;20068;-75
2021/07/19 23:19:38;;;;;;;0.47;0.40;;;;;;;23.77;51.66;100724.34;6210849;23;20012;-76
2021/07/19 23:22:04;;;;;;;0.30;0.30;;;;;;;23.75;51.92;100721.06;6243667;23;20008;-76